sensor_id;sensor_type;location;lat;lon;timestamp;pressure;altitude;pressure_sealevel;temperature;humidity
68141;BME280;54941;52.220;104.306;2023-02-12T00:02:06;98628.47;;;-24.10;71.26
68141;BME280;54941;52.220;104.306;2023-02-12T00:04:32;98639.09;;;-24.08;70.66
68141;BME280;54941;52.220;104.306;2023-02-12T00:07:00;98647.09;;;-23.90;70.16
68141;BME280;54941;52.220;104.306;2023-02-12T00:09:27;98664.78;;;-23.73;70.62
68141;BME280;54941;52.220;104.306;2023-02-12T00:11:53;98662.84;;;-23.60;71.13
68141;BME280;54941;52.220;104.306;2023-02-12T00:14:19;98662.13;;;-23.79;70.99
68141;BME280;54941;52.220;104.306;2023-02-12T00:16:46;98666.47;;;-23.93;70.49
68141;BME280;54941;52.220;104.306;2023-02-12T00:19:12;98674.44;;;-23.97;70.41
68141;BME280;54941;52.220;104.306;2023-02-12T00:21:39;98666.09;;;-23.81;70.28
68141;BME280;54941;52.220;104.306;2023-02-12T00:24:07;98676.97;;;-23.73;70.76
68141;BME280;54941;52.220;104.306;2023-02-12T00:26:35;98674.84;;;-23.64;71.16
68141;BME280;54941;52.220;104.306;2023-02-12T00:29:01;98681.00;;;-23.74;71.89
68141;BME280;54941;52.220;104.306;2023-02-12T00:31:29;98684.81;;;-23.80;71.84
68141;BME280;54941;52.220;104.306;2023-02-12T00:33:57;98681.00;;;-23.52;71.55
68141;BME280;54941;52.220;104.306;2023-02-12T00:36:25;98675.09;;;-23.58;71.44
68141;BME280;54941;52.220;104.306;2023-02-12T00:38:52;98683.91;;;-23.62;71.55
68141;BME280;54941;52.220;104.306;2023-02-12T00:41:21;98681.91;;;-23.50;71.21
68141;BME280;54941;52.220;104.306;2023-02-12T00:43:48;98690.00;;;-23.27;70.79
68141;BME280;54941;52.220;104.306;2023-02-12T00:46:15;98682.81;;;-23.24;70.38
68141;BME280;54941;52.220;104.306;2023-02-12T00:48:41;98688.16;;;-23.10;70.56
68141;BME280;54941;52.220;104.306;2023-02-12T00:51:08;98695.97;;;-22.97;71.19
68141;BME280;54941;52.220;104.306;2023-02-12T00:53:34;98700.81;;;-23.20;70.59
68141;BME280;54941;52.220;104.306;2023-02-12T00:56:01;98709.88;;;-23.16;70.39
68141;BME280;54941;52.220;104.306;2023-02-12T00:58:29;98719.59;;;-23.18;70.11
68141;BME280;54941;52.220;104.306;2023-02-12T01:00:55;98722.22;;;-23.13;70.46
68141;BME280;54941;52.220;104.306;2023-02-12T01:03:22;98724.38;;;-22.99;70.13
68141;BME280;54941;52.220;104.306;2023-02-12T01:05:48;98723.19;;;-23.08;70.88
68141;BME280;54941;52.220;104.306;2023-02-12T01:08:15;98719.59;;;-23.18;71.27
68141;BME280;54941;52.220;104.306;2023-02-12T01:10:42;98735.47;;;-23.07;71.46
68141;BME280;54941;52.220;104.306;2023-02-12T01:13:11;98734.66;;;-22.83;71.16
68141;BME280;54941;52.220;104.306;2023-02-12T01:15:39;98734.88;;;-22.52;70.57
68141;BME280;54941;52.220;104.306;2023-02-12T01:18:06;98732.91;;;-23.10;70.45
68141;BME280;54941;52.220;104.306;2023-02-12T01:20:32;98733.19;;;-23.24;71.65
68141;BME280;54941;52.220;104.306;2023-02-12T01:22:58;98732.13;;;-23.53;71.76
68141;BME280;54941;52.220;104.306;2023-02-12T01:25:25;98727.75;;;-23.40;72.37
68141;BME280;54941;52.220;104.306;2023-02-12T01:27:52;98736.66;;;-23.40;72.59
68141;BME280;54941;52.220;104.306;2023-02-12T01:30:19;98727.47;;;-23.25;72.29
68141;BME280;54941;52.220;104.306;2023-02-12T01:32:49;98733.63;;;-23.12;72.48
68141;BME280;54941;52.220;104.306;2023-02-12T01:35:15;98734.13;;;-23.21;72.36
68141;BME280;54941;52.220;104.306;2023-02-12T01:37:42;98736.00;;;-23.14;72.91
68141;BME280;54941;52.220;104.306;2023-02-12T01:40:10;98740.75;;;-22.47;73.12
68141;BME280;54941;52.220;104.306;2023-02-12T01:42:38;98747.94;;;-22.28;72.97
68141;BME280;54941;52.220;104.306;2023-02-12T01:45:37;98754.38;;;-22.05;72.15
68141;BME280;54941;52.220;104.306;2023-02-12T01:48:10;98757.84;;;-21.71;71.88
68141;BME280;54941;52.220;104.306;2023-02-12T01:50:37;98757.94;;;-21.68;71.11
68141;BME280;54941;52.220;104.306;2023-02-12T01:53:04;98763.75;;;-21.38;70.83
68141;BME280;54941;52.220;104.306;2023-02-12T01:55:30;98764.97;;;-21.25;70.26
68141;BME280;54941;52.220;104.306;2023-02-12T01:57:57;98757.84;;;-21.45;70.78
68141;BME280;54941;52.220;104.306;2023-02-12T02:00:24;98767.03;;;-20.81;69.38
68141;BME280;54941;52.220;104.306;2023-02-12T02:02:54;98755.84;;;-20.09;67.93
68141;BME280;54941;52.220;104.306;2023-02-12T02:05:29;98747.16;;;-18.86;65.21
68141;BME280;54941;52.220;104.306;2023-02-12T02:07:56;98746.94;;;-18.56;62.91
68141;BME280;54941;52.220;104.306;2023-02-12T02:10:22;98741.69;;;-18.29;61.58
68141;BME280;54941;52.220;104.306;2023-02-12T02:12:49;98752.84;;;-18.00;60.72
68141;BME280;54941;52.220;104.306;2023-02-12T02:15:15;98745.63;;;-18.37;60.66
68141;BME280;54941;52.220;104.306;2023-02-12T02:17:50;98745.63;;;-18.37;60.91
68141;BME280;54941;52.220;104.306;2023-02-12T02:29:26;98735.59;;;-17.47;60.69
68141;BME280;54941;52.220;104.306;2023-02-12T02:32:04;98729.06;;;-17.45;61.04
68141;BME280;54941;52.220;104.306;2023-02-12T02:34:41;98730.69;;;-16.89;60.79
68141;BME280;54941;52.220;104.306;2023-02-12T02:37:14;98727.19;;;-16.33;58.92
68141;BME280;54941;52.220;104.306;2023-02-12T02:39:48;98727.09;;;-15.43;57.25
68141;BME280;54941;52.220;104.306;2023-02-12T02:42:24;98728.75;;;-15.42;56.63
68141;BME280;54941;52.220;104.306;2023-02-12T02:44:54;98728.66;;;-15.63;57.08
68141;BME280;54941;52.220;104.306;2023-02-12T02:47:25;98722.19;;;-15.39;56.97
68141;BME280;54941;52.220;104.306;2023-02-12T02:49:58;98723.41;;;-14.59;55.91
68141;BME280;54941;52.220;104.306;2023-02-12T02:52:30;98736.78;;;-13.41;53.69
68141;BME280;54941;52.220;104.306;2023-02-12T02:55:05;98729.28;;;-14.21;53.24
68141;BME280;54941;52.220;104.306;2023-02-12T02:57:37;98731.81;;;-13.10;52.86
68141;BME280;54941;52.220;104.306;2023-02-12T03:00:08;98745.09;;;-13.49;51.86
68141;BME280;54941;52.220;104.306;2023-02-12T03:02:41;98740.47;;;-11.97;48.35
68141;BME280;54941;52.220;104.306;2023-02-12T03:05:13;98746.59;;;-12.81;47.58
68141;BME280;54941;52.220;104.306;2023-02-12T03:07:45;98741.53;;;-12.50;47.96
68141;BME280;54941;52.220;104.306;2023-02-12T03:10:17;98744.03;;;-12.59;47.06
68141;BME280;54941;52.220;104.306;2023-02-12T03:12:51;98753.13;;;-14.61;51.71
68141;BME280;54941;52.220;104.306;2023-02-12T03:15:22;98755.81;;;-13.62;49.49
68141;BME280;54941;52.220;104.306;2023-02-12T03:17:52;98757.44;;;-13.55;48.62
68141;BME280;54941;52.220;104.306;2023-02-12T03:20:21;98762.34;;;-13.99;48.97
68141;BME280;54941;52.220;104.306;2023-02-12T03:22:51;98757.78;;;-15.15;50.97
68141;BME280;54941;52.220;104.306;2023-02-12T03:25:21;98747.44;;;-14.45;51.09
68141;BME280;54941;52.220;104.306;2023-02-12T03:27:57;98750.81;;;-13.93;50.77
68141;BME280;54941;52.220;104.306;2023-02-12T03:30:30;98754.91;;;-14.16;51.68
68141;BME280;54941;52.220;104.306;2023-02-12T03:33:07;98761.59;;;-13.53;50.36
68141;BME280;54941;52.220;104.306;2023-02-12T03:35:41;98761.59;;;-13.51;50.78
68141;BME280;54941;52.220;104.306;2023-02-12T03:38:16;98759.84;;;-14.13;50.86
68141;BME280;54941;52.220;104.306;2023-02-12T03:40:51;98762.41;;;-13.37;49.90
68141;BME280;54941;52.220;104.306;2023-02-12T03:43:23;98758.22;;;-12.90;49.88
68141;BME280;54941;52.220;104.306;2023-02-12T03:45:54;98758.22;;;-13.06;51.66
68141;BME280;54941;52.220;104.306;2023-02-12T03:48:27;98749.75;;;-12.36;49.58
68141;BME280;54941;52.220;104.306;2023-02-12T03:51:00;98748.66;;;-11.83;47.88
68141;BME280;54941;52.220;104.306;2023-02-12T03:53:29;98749.47;;;-11.84;47.33
68141;BME280;54941;52.220;104.306;2023-02-12T03:55:59;98754.31;;;-11.69;49.25
68141;BME280;54941;52.220;104.306;2023-02-12T03:58:28;98751.88;;;-11.73;48.71
68141;BME280;54941;52.220;104.306;2023-02-12T04:00:58;98749.84;;;-11.29;47.90
68141;BME280;54941;52.220;104.306;2023-02-12T04:03:27;98752.72;;;-10.80;47.42
68141;BME280;54941;52.220;104.306;2023-02-12T04:05:55;98754.41;;;-11.78;49.73
68141;BME280;54941;52.220;104.306;2023-02-12T04:08:21;98752.84;;;-11.96;50.11
68141;BME280;54941;52.220;104.306;2023-02-12T04:10:58;98750.13;;;-11.61;49.07
68141;BME280;54941;52.220;104.306;2023-02-12T04:13:32;98752.53;;;-11.52;46.76
68141;BME280;54941;52.220;104.306;2023-02-12T04:16:10;98752.97;;;-12.23;49.26
68141;BME280;54941;52.220;104.306;2023-02-12T04:18:44;98757.38;;;-12.95;51.62
68141;BME280;54941;52.220;104.306;2023-02-12T04:21:15;98744.69;;;-12.16;50.31
68141;BME280;54941;52.220;104.306;2023-02-12T04:23:59;98742.06;;;-11.90;51.20
68141;BME280;54941;52.220;104.306;2023-02-12T04:26:38;98739.50;;;-11.79;50.68
68141;BME280;54941;52.220;104.306;2023-02-12T04:29:15;98734.41;;;-11.66;51.00
68141;BME280;54941;52.220;104.306;2023-02-12T04:31:46;98722.66;;;-11.46;51.13
68141;BME280;54941;52.220;104.306;2023-02-12T04:34:18;98721.44;;;-11.05;50.91
68141;BME280;54941;52.220;104.306;2023-02-12T04:36:51;98713.38;;;-10.51;48.32
68141;BME280;54941;52.220;104.306;2023-02-12T04:39:22;98710.75;;;-11.13;50.61
68141;BME280;54941;52.220;104.306;2023-02-12T04:41:50;98710.34;;;-10.78;50.12
68141;BME280;54941;52.220;104.306;2023-02-12T04:44:21;98715.38;;;-11.68;52.71
68141;BME280;54941;52.220;104.306;2023-02-12T04:46:48;98705.81;;;-11.16;52.05
68141;BME280;54941;52.220;104.306;2023-02-12T04:49:17;98710.13;;;-11.37;51.66
68141;BME280;54941;52.220;104.306;2023-02-12T04:51:44;98708.91;;;-11.88;53.43
68141;BME280;54941;52.220;104.306;2023-02-12T04:54:11;98720.22;;;-11.55;53.96
68141;BME280;54941;52.220;104.306;2023-02-12T04:56:38;98721.03;;;-11.51;53.04
68141;BME280;54941;52.220;104.306;2023-02-12T04:59:04;98718.94;;;-12.01;55.03
68141;BME280;54941;52.220;104.306;2023-02-12T05:01:33;98712.13;;;-11.75;55.09
68141;BME280;54941;52.220;104.306;2023-02-12T05:03:59;98708.78;;;-11.74;54.90
68141;BME280;54941;52.220;104.306;2023-02-12T05:06:27;98704.94;;;-11.15;53.02
68141;BME280;54941;52.220;104.306;2023-02-12T05:08:54;98709.91;;;-10.41;50.88
68141;BME280;54941;52.220;104.306;2023-02-12T05:11:20;98711.16;;;-10.75;50.70
68141;BME280;54941;52.220;104.306;2023-02-12T05:13:48;98707.00;;;-10.10;50.04
68141;BME280;54941;52.220;104.306;2023-02-12T05:16:14;98710.81;;;-11.21;52.13
68141;BME280;54941;52.220;104.306;2023-02-12T05:18:41;98713.16;;;-9.76;49.39
68141;BME280;54941;52.220;104.306;2023-02-12T05:21:07;98717.66;;;-9.99;49.41
68141;BME280;54941;52.220;104.306;2023-02-12T05:23:37;98716.94;;;-11.60;52.72
68141;BME280;54941;52.220;104.306;2023-02-12T05:26:06;98705.47;;;-10.84;51.42
68141;BME280;54941;52.220;104.306;2023-02-12T05:28:32;98709.84;;;-11.05;53.38
68141;BME280;54941;52.220;104.306;2023-02-12T05:30:59;98704.06;;;-11.10;53.49
68141;BME280;54941;52.220;104.306;2023-02-12T05:33:26;98704.59;;;-10.79;53.44
68141;BME280;54941;52.220;104.306;2023-02-12T05:35:53;98709.44;;;-10.71;53.21
68141;BME280;54941;52.220;104.306;2023-02-12T05:38:19;98699.69;;;-10.87;53.50
68141;BME280;54941;52.220;104.306;2023-02-12T05:40:47;98691.22;;;-10.72;54.47
68141;BME280;54941;52.220;104.306;2023-02-12T05:43:13;98692.47;;;-10.41;54.32
68141;BME280;54941;52.220;104.306;2023-02-12T05:45:40;98689.09;;;-10.35;54.81
68141;BME280;54941;52.220;104.306;2023-02-12T05:48:06;98691.50;;;-10.27;54.29
68141;BME280;54941;52.220;104.306;2023-02-12T05:50:36;98697.84;;;-10.10;53.45
68141;BME280;54941;52.220;104.306;2023-02-12T05:53:02;98697.84;;;-10.10;53.62
68141;BME280;54941;52.220;104.306;2023-02-12T05:55:28;98691.59;;;-10.38;54.44
68141;BME280;54941;52.220;104.306;2023-02-12T05:57:56;98693.22;;;-9.79;53.70
68141;BME280;54941;52.220;104.306;2023-02-12T06:00:23;98690.91;;;-9.90;53.29
68141;BME280;54941;52.220;104.306;2023-02-12T06:02:49;98689.16;;;-10.41;56.00
68141;BME280;54941;52.220;104.306;2023-02-12T06:05:15;98678.94;;;-10.23;55.79
68141;BME280;54941;52.220;104.306;2023-02-12T06:07:42;98687.84;;;-10.08;55.78
68141;BME280;54941;52.220;104.306;2023-02-12T06:10:09;98679.91;;;-10.33;55.90
68141;BME280;54941;52.220;104.306;2023-02-12T06:12:35;98683.91;;;-10.20;56.64
68141;BME280;54941;52.220;104.306;2023-02-12T06:15:05;98678.41;;;-10.45;57.13
68141;BME280;54941;52.220;104.306;2023-02-12T06:17:32;98674.16;;;-10.37;57.64
68141;BME280;54941;52.220;104.306;2023-02-12T06:19:59;98678.25;;;-10.31;57.06
68141;BME280;54941;52.220;104.306;2023-02-12T06:22:26;98675.66;;;-10.25;56.97
68141;BME280;54941;52.220;104.306;2023-02-12T06:24:52;98678.41;;;-9.87;56.60
68141;BME280;54941;52.220;104.306;2023-02-12T06:27:19;98674.44;;;-9.98;56.81
68141;BME280;54941;52.220;104.306;2023-02-12T06:29:45;98665.78;;;-9.76;56.63
68141;BME280;54941;52.220;104.306;2023-02-12T06:32:13;98668.97;;;-10.21;57.42
68141;BME280;54941;52.220;104.306;2023-02-12T06:34:39;98661.25;;;-10.06;58.59
68141;BME280;54941;52.220;104.306;2023-02-12T06:37:06;98654.31;;;-9.89;57.75
68141;BME280;54941;52.220;104.306;2023-02-12T06:39:32;98653.97;;;-9.68;56.97
68141;BME280;54941;52.220;104.306;2023-02-12T06:41:58;98655.19;;;-9.92;57.61
68141;BME280;54941;52.220;104.306;2023-02-12T06:44:25;98661.97;;;-9.98;57.81
68141;BME280;54941;52.220;104.306;2023-02-12T06:46:51;98650.78;;;-9.74;58.31
68141;BME280;54941;52.220;104.306;2023-02-12T06:49:19;98645.72;;;-9.71;58.47
68141;BME280;54941;52.220;104.306;2023-02-12T06:51:45;98650.59;;;-9.64;58.06
68141;BME280;54941;52.220;104.306;2023-02-12T06:54:13;98645.19;;;-9.40;57.62
68141;BME280;54941;52.220;104.306;2023-02-12T06:56:39;98640.53;;;-9.12;57.41
68141;BME280;54941;52.220;104.306;2023-02-12T06:59:05;98643.63;;;-9.45;57.46
68141;BME280;54941;52.220;104.306;2023-02-12T07:01:32;98647.00;;;-9.46;57.39
68141;BME280;54941;52.220;104.306;2023-02-12T07:03:59;98634.69;;;-9.12;56.81
68141;BME280;54941;52.220;104.306;2023-02-12T07:06:29;98626.06;;;-8.95;57.33
68141;BME280;54941;52.220;104.306;2023-02-12T07:08:56;98630.47;;;-9.09;57.92
68141;BME280;54941;52.220;104.306;2023-02-12T07:11:23;98631.97;;;-9.00;57.85
68141;BME280;54941;52.220;104.306;2023-02-12T07:13:50;98632.53;;;-8.86;57.41
68141;BME280;54941;52.220;104.306;2023-02-12T07:16:16;98629.81;;;-8.75;56.95
68141;BME280;54941;52.220;104.306;2023-02-12T07:18:43;98635.41;;;-8.63;57.57
68141;BME280;54941;52.220;104.306;2023-02-12T07:21:11;98634.75;;;-8.32;56.66
68141;BME280;54941;52.220;104.306;2023-02-12T07:23:40;98634.19;;;-8.85;57.64
68141;BME280;54941;52.220;104.306;2023-02-12T07:26:08;98628.72;;;-8.62;55.79
68141;BME280;54941;52.220;104.306;2023-02-12T07:28:35;98631.09;;;-8.56;56.05
68141;BME280;54941;52.220;104.306;2023-02-12T07:31:05;98631.22;;;-8.62;55.75
68141;BME280;54941;52.220;104.306;2023-02-12T07:33:32;98633.34;;;-8.85;56.51
68141;BME280;54941;52.220;104.306;2023-02-12T07:35:59;98633.59;;;-8.98;56.12
68141;BME280;54941;52.220;104.306;2023-02-12T07:38:25;98626.72;;;-8.87;55.68
68141;BME280;54941;52.220;104.306;2023-02-12T07:40:53;98619.28;;;-8.90;56.46
68141;BME280;54941;52.220;104.306;2023-02-12T07:43:20;98618.91;;;-8.70;56.36
68141;BME280;54941;52.220;104.306;2023-02-12T07:45:46;98627.97;;;-9.07;57.26
68141;BME280;54941;52.220;104.306;2023-02-12T07:48:12;98625.63;;;-8.73;56.36
68141;BME280;54941;52.220;104.306;2023-02-12T07:50:39;98629.56;;;-8.62;56.40
68141;BME280;54941;52.220;104.306;2023-02-12T07:53:05;98635.25;;;-8.18;55.74
68141;BME280;54941;52.220;104.306;2023-02-12T07:55:31;98629.25;;;-8.48;55.66
68141;BME280;54941;52.220;104.306;2023-02-12T07:57:59;98628.69;;;-8.61;55.60
68141;BME280;54941;52.220;104.306;2023-02-12T08:00:25;98633.53;;;-8.53;55.63
68141;BME280;54941;52.220;104.306;2023-02-12T08:02:52;98629.00;;;-8.36;54.82
68141;BME280;54941;52.220;104.306;2023-02-12T08:05:18;98623.19;;;-8.36;54.83
68141;BME280;54941;52.220;104.306;2023-02-12T08:07:45;98626.91;;;-8.19;54.71
68141;BME280;54941;52.220;104.306;2023-02-12T08:10:11;98621.59;;;-8.41;55.16
68141;BME280;54941;52.220;104.306;2023-02-12T08:12:38;98624.91;;;-8.03;54.18
68141;BME280;54941;52.220;104.306;2023-02-12T08:15:07;98621.63;;;-8.42;55.23
68141;BME280;54941;52.220;104.306;2023-02-12T08:17:33;98620.09;;;-8.49;55.05
68141;BME280;54941;52.220;104.306;2023-02-12T08:20:00;98621.66;;;-8.08;54.58
68141;BME280;54941;52.220;104.306;2023-02-12T08:22:26;98625.16;;;-8.14;54.80
68141;BME280;54941;52.220;104.306;2023-02-12T08:24:52;98617.06;;;-8.25;55.04
68141;BME280;54941;52.220;104.306;2023-02-12T08:27:19;98616.59;;;-8.41;55.80
68141;BME280;54941;52.220;104.306;2023-02-12T08:29:45;98613.50;;;-8.16;54.93
68141;BME280;54941;52.220;104.306;2023-02-12T08:32:13;98611.00;;;-8.16;54.15
68141;BME280;54941;52.220;104.306;2023-02-12T08:34:39;98619.56;;;-8.25;54.94
68141;BME280;54941;52.220;104.306;2023-02-12T08:37:06;98616.59;;;-8.39;55.15
68141;BME280;54941;52.220;104.306;2023-02-12T08:39:32;98612.63;;;-8.49;55.74
68141;BME280;54941;52.220;104.306;2023-02-12T08:41:59;98614.41;;;-8.54;55.95
68141;BME280;54941;52.220;104.306;2023-02-12T08:44:26;98607.91;;;-8.63;55.80
68141;BME280;54941;52.220;104.306;2023-02-12T08:46:52;98612.66;;;-8.51;56.49
68141;BME280;54941;52.220;104.306;2023-02-12T08:49:22;98609.50;;;-8.59;57.12
68141;BME280;54941;52.220;104.306;2023-02-12T08:51:50;98609.72;;;-8.69;57.92
68141;BME280;54941;52.220;104.306;2023-02-12T08:54:18;98607.06;;;-8.62;57.49
68141;BME280;54941;52.220;104.306;2023-02-12T08:56:45;98608.06;;;-8.70;59.30
68141;BME280;54941;52.220;104.306;2023-02-12T08:59:12;98601.91;;;-8.54;58.94
68141;BME280;54941;52.220;104.306;2023-02-12T09:01:40;98605.34;;;-8.60;59.10
68141;BME280;54941;52.220;104.306;2023-02-12T09:04:09;98600.25;;;-8.55;57.89
68141;BME280;54941;52.220;104.306;2023-02-12T09:06:39;98596.00;;;-8.52;58.21
68141;BME280;54941;52.220;104.306;2023-02-12T09:09:05;98601.84;;;-8.53;58.87
68141;BME280;54941;52.220;104.306;2023-02-12T09:11:33;98608.41;;;-8.47;58.64
68141;BME280;54941;52.220;104.306;2023-02-12T09:14:02;98602.44;;;-8.40;55.84
68141;BME280;54941;52.220;104.306;2023-02-12T09:16:29;98596.59;;;-8.39;53.64
68141;BME280;54941;52.220;104.306;2023-02-12T09:18:56;98602.75;;;-8.55;52.74
68141;BME280;54941;52.220;104.306;2023-02-12T09:21:23;98599.66;;;-8.66;51.02
68141;BME280;54941;52.220;104.306;2023-02-12T09:23:51;98600.66;;;-8.75;48.25
68141;BME280;54941;52.220;104.306;2023-02-12T09:26:19;98603.06;;;-8.70;50.05
68141;BME280;54941;52.220;104.306;2023-02-12T09:28:46;98593.94;;;-8.71;49.71
68141;BME280;54941;52.220;104.306;2023-02-12T09:31:14;98598.44;;;-8.87;49.64
68141;BME280;54941;52.220;104.306;2023-02-12T09:33:41;98588.75;;;-9.02;50.84
68141;BME280;54941;52.220;104.306;2023-02-12T09:36:09;98594.81;;;-9.15;54.64
68141;BME280;54941;52.220;104.306;2023-02-12T09:38:36;98588.84;;;-9.50;57.81
68141;BME280;54941;52.220;104.306;2023-02-12T09:41:13;98583.91;;;-10.02;60.92
68141;BME280;54941;52.220;104.306;2023-02-12T09:43:52;98592.03;;;-10.43;62.52
68141;BME280;54941;52.220;104.306;2023-02-12T09:46:26;98589.75;;;-10.58;62.84
68141;BME280;54941;52.220;104.306;2023-02-12T09:48:59;98590.16;;;-10.87;63.53
68141;BME280;54941;52.220;104.306;2023-02-12T09:51:30;98591.47;;;-11.28;63.93
68141;BME280;54941;52.220;104.306;2023-02-12T09:54:02;98593.03;;;-11.21;63.62
68141;BME280;54941;52.220;104.306;2023-02-12T09:56:33;98599.28;;;-11.60;65.13
68141;BME280;54941;52.220;104.306;2023-02-12T09:59:03;98596.78;;;-11.60;64.97
68141;BME280;54941;52.220;104.306;2023-02-12T10:01:30;98593.44;;;-11.59;65.47
68141;BME280;54941;52.220;104.306;2023-02-12T10:03:57;98602.75;;;-11.75;65.11
68141;BME280;54941;52.220;104.306;2023-02-12T10:06:26;98599.44;;;-11.75;65.88
68141;BME280;54941;52.220;104.306;2023-02-12T10:09:02;98601.94;;;-11.78;66.40
68141;BME280;54941;52.220;104.306;2023-02-12T10:11:44;98600.41;;;-11.92;65.78
68141;BME280;54941;52.220;104.306;2023-02-12T10:17:09;98605.03;;;-12.57;65.69
68141;BME280;54941;52.220;104.306;2023-02-12T10:19:56;98611.78;;;-12.88;66.78
68141;BME280;54941;52.220;104.306;2023-02-12T10:22:34;98620.09;;;-12.94;66.99
68141;BME280;54941;52.220;104.306;2023-02-12T10:25:18;98614.47;;;-13.33;67.87
68141;BME280;54941;52.220;104.306;2023-02-12T10:27:50;98609.53;;;-13.35;68.92
68141;BME280;54941;52.220;104.306;2023-02-12T10:30:20;98612.81;;;-13.33;68.33
68141;BME280;54941;52.220;104.306;2023-02-12T10:32:50;98615.25;;;-13.12;69.01
68141;BME280;54941;52.220;104.306;2023-02-12T10:35:18;98610.28;;;-13.12;69.57
68141;BME280;54941;52.220;104.306;2023-02-12T10:37:52;98619.41;;;-13.26;68.74
68141;BME280;54941;52.220;104.306;2023-02-12T10:40:23;98611.22;;;-13.54;69.24
68141;BME280;54941;52.220;104.306;2023-02-12T10:42:52;98623.59;;;-13.46;69.12
68141;BME280;54941;52.220;104.306;2023-02-12T10:45:19;98621.13;;;-13.46;69.50
68141;BME280;54941;52.220;104.306;2023-02-12T10:47:48;98621.19;;;-13.75;69.63
68141;BME280;54941;52.220;104.306;2023-02-12T10:50:23;98621.16;;;-13.81;71.03
68141;BME280;54941;52.220;104.306;2023-02-12T10:52:55;98619.53;;;-13.94;71.18
68141;BME280;54941;52.220;104.306;2023-02-12T10:55:25;98626.16;;;-14.05;71.47
68141;BME280;54941;52.220;104.306;2023-02-12T10:57:56;98622.84;;;-13.97;71.47
68141;BME280;54941;52.220;104.306;2023-02-12T11:00:26;98630.28;;;-14.09;72.14
68141;BME280;54941;52.220;104.306;2023-02-12T11:03:07;98626.16;;;-14.08;73.27
68141;BME280;54941;52.220;104.306;2023-02-12T11:05:43;98632.75;;;-14.10;73.02
68141;BME280;54941;52.220;104.306;2023-02-12T11:08:29;98629.47;;;-14.38;72.90
68141;BME280;54941;52.220;104.306;2023-02-12T11:11:03;98624.41;;;-14.79;73.43
68141;BME280;54941;52.220;104.306;2023-02-12T11:13:31;98621.13;;;-14.75;74.17
68141;BME280;54941;52.220;104.306;2023-02-12T11:15:58;98626.94;;;-14.58;75.04
68141;BME280;54941;52.220;104.306;2023-02-12T11:18:26;98627.81;;;-14.39;74.93
68141;BME280;54941;52.220;104.306;2023-02-12T11:20:55;98632.75;;;-14.47;75.54
68141;BME280;54941;52.220;104.306;2023-02-12T11:23:24;98627.72;;;-14.66;74.95
68141;BME280;54941;52.220;104.306;2023-02-12T11:25:55;98640.13;;;-14.68;74.89
68141;BME280;54941;52.220;104.306;2023-02-12T11:28:22;98635.91;;;-14.89;74.80
68141;BME280;54941;52.220;104.306;2023-02-12T11:30:52;98630.97;;;-14.90;74.99
68141;BME280;54941;52.220;104.306;2023-02-12T11:33:25;98632.53;;;-15.07;74.01
68141;BME280;54941;52.220;104.306;2023-02-12T11:35:54;98630.06;;;-15.10;75.09
68141;BME280;54941;52.220;104.306;2023-02-12T11:38:27;98635.00;;;-15.19;76.67
68141;BME280;54941;52.220;104.306;2023-02-12T11:40:58;98625.16;;;-15.00;77.12
68141;BME280;54941;52.220;104.306;2023-02-12T11:43:25;98632.56;;;-15.03;77.27
68141;BME280;54941;52.220;104.306;2023-02-12T11:45:54;98635.81;;;-15.17;77.12
68141;BME280;54941;52.220;104.306;2023-02-12T11:48:25;98625.91;;;-15.26;76.52
68141;BME280;54941;52.220;104.306;2023-02-12T11:50:54;98637.50;;;-15.15;76.10
68141;BME280;54941;52.220;104.306;2023-02-12T11:53:23;98632.56;;;-15.03;76.61
68141;BME280;54941;52.220;104.306;2023-02-12T11:55:57;98635.09;;;-14.92;77.47
68141;BME280;54941;52.220;104.306;2023-02-12T11:58:25;98630.97;;;-14.93;78.11
68141;BME280;54941;52.220;104.306;2023-02-12T12:01:00;98634.25;;;-14.99;78.17
68141;BME280;54941;52.220;104.306;2023-02-12T12:03:33;98647.28;;;-15.30;78.62
68141;BME280;54941;52.220;104.306;2023-02-12T12:06:05;98646.25;;;-15.74;78.16
68141;BME280;54941;52.220;104.306;2023-02-12T12:08:37;98643.59;;;-15.97;77.79
68141;BME280;54941;52.220;104.306;2023-02-12T12:11:09;98646.16;;;-15.83;78.50
68141;BME280;54941;52.220;104.306;2023-02-12T12:13:42;98647.16;;;-15.57;79.00
68141;BME280;54941;52.220;104.306;2023-02-12T12:16:17;98650.63;;;-15.23;79.63
68141;BME280;54941;52.220;104.306;2023-02-12T12:18:48;98651.56;;;-15.00;80.12
68141;BME280;54941;52.220;104.306;2023-02-12T12:21:22;98649.66;;;-15.53;79.69
68141;BME280;54941;52.220;104.306;2023-02-12T12:23:52;98647.97;;;-15.58;79.28
68141;BME280;54941;52.220;104.306;2023-02-12T12:26:23;98651.34;;;-15.41;79.70
68141;BME280;54941;52.220;104.306;2023-02-12T12:28:54;98651.31;;;-15.47;79.98
68141;BME280;54941;52.220;104.306;2023-02-12T12:31:26;98646.25;;;-15.71;79.52
68141;BME280;54941;52.220;104.306;2023-02-12T12:33:58;98651.84;;;-15.94;79.00
68141;BME280;54941;52.220;104.306;2023-02-12T12:36:47;98652.78;;;-15.76;80.69
68141;BME280;54941;52.220;104.306;2023-02-12T12:39:25;98656.94;;;-15.74;80.84
68141;BME280;54941;52.220;104.306;2023-02-12T12:45:04;98654.44;;;-15.77;81.21
68141;BME280;54941;52.220;104.306;2023-02-12T12:47:44;98654.44;;;-15.77;81.00
68141;BME280;54941;52.220;104.306;2023-02-12T12:50:25;98650.31;;;-15.78;81.13
68141;BME280;54941;52.220;104.306;2023-02-12T12:53:15;98645.50;;;-15.63;81.99
68141;BME280;54941;52.220;104.306;2023-02-12T12:56:03;98644.69;;;-15.54;81.17
68141;BME280;54941;52.220;104.306;2023-02-12T12:58:44;98645.59;;;-16.52;80.98
68141;BME280;54941;52.220;104.306;2023-02-12T13:04:47;98628.16;;;-15.69;81.52